Terminal Aerodrome Forecast
Issued by NWS Atlanta, GA

Home | Current Version | Previous Version | Text Only | Print | Product List | Glossary On
Versions: 1 2 3 4 5 6 7 8 9 10 11 12 13 14 15 16 17 18 19 20 21 22 23 24 25 26
000
FTUS42 KFFC 061945 AAA
TAFMCN
TAF AMD
KMCN 061945Z 0620/0718 06005KT P6SM SCT025 BKN040
     FM062200 03005KT P6SM SCT040
     FM070100 35003KT P6SM FEW050
     FM071700 32005KT P6SM SCT150=

USA.gov is the U.S. government's official web portal to all federal, state and local government web resources and services.